createdAt,value
2022-11-21T00:01:25.539Z,19.15
2022-11-21T00:03:53.333Z,19.98
2022-11-21T00:06:21.866Z,18.30
2022-11-21T00:08:49.536Z,20.65
2022-11-21T00:11:17.369Z,20.10
2022-11-21T00:13:45.162Z,19.52
2022-11-21T00:16:14.833Z,19.55
2022-11-21T00:18:44.116Z,18.20
2022-11-21T00:21:14.152Z,19.30
2022-11-21T00:23:42.747Z,7.62
2022-11-21T00:26:11.376Z,18.30
2022-11-21T00:28:39.372Z,18.42
2022-11-21T00:31:07.514Z,17.12
2022-11-21T00:33:35.700Z,18.83
2022-11-21T00:36:09.861Z,17.02
2022-11-21T00:38:37.900Z,18.35
2022-11-21T00:41:05.749Z,16.60
2022-11-21T00:43:33.212Z,16.45
2022-11-21T00:46:02.786Z,16.52
2022-11-21T00:48:31.696Z,16.42
2022-11-21T00:51:00.640Z,14.13
2022-11-21T00:53:29.170Z,15.40
2022-11-21T00:55:56.596Z,15.48
2022-11-21T00:58:23.920Z,16.23
2022-11-21T01:00:51.574Z,15.90
2022-11-21T01:03:19.136Z,1.35
2022-11-21T01:05:46.480Z,16.27
2022-11-21T01:08:14.067Z,17.35
2022-11-21T01:10:41.406Z,16.15
2022-11-21T01:13:08.795Z,16.30
2022-11-21T01:15:36.472Z,17.25
2022-11-21T01:18:03.972Z,19.02
2022-11-21T01:20:31.282Z,18.10
2022-11-21T01:22:58.862Z,20.45
2022-11-21T01:25:26.250Z,21.12
2022-11-21T01:27:53.566Z,23.67
2022-11-21T01:30:21.283Z,27.87
2022-11-21T01:32:50.066Z,22.80
2022-11-21T01:35:18.014Z,20.58
2022-11-21T01:37:49.341Z,19.33
2022-11-21T01:40:16.815Z,19.67
2022-11-21T01:42:57.563Z,20.55
2022-11-21T01:45:54.888Z,21.85
2022-11-21T01:48:29.994Z,21.77
2022-11-21T01:51:00.727Z,20.98
2022-11-21T01:53:28.146Z,18.83
2022-11-21T01:55:55.526Z,18.62
2022-11-21T01:58:23.907Z,19.42
2022-11-21T02:00:51.242Z,18.35
2022-11-21T02:03:21.881Z,18.15
2022-11-21T02:05:49.572Z,18.37
2022-11-21T02:08:20.938Z,5.22
2022-11-21T02:11:43.912Z,8.18
2022-11-21T02:14:11.952Z,18.10
2022-11-21T02:16:40.014Z,17.20
2022-11-21T02:19:11.035Z,17.48
2022-11-21T02:22:00.521Z,16.73
2022-11-21T02:24:40.166Z,16.10
2022-11-21T02:27:07.530Z,17.25
2022-11-21T02:29:35.242Z,17.48
2022-11-21T02:32:06.343Z,17.20
2022-11-21T02:34:33.845Z,17.08
2022-11-21T02:37:02.197Z,17.20
2022-11-21T02:39:33.482Z,16.52
2022-11-21T02:42:10.189Z,4.70
2022-11-21T02:44:49.623Z,17.05
2022-11-21T02:47:22.511Z,16.35
2022-11-21T02:50:03.640Z,9.25
2022-11-21T02:52:31.231Z,8.70
2022-11-21T02:54:58.591Z,15.60
2022-11-21T02:57:25.916Z,17.00
2022-11-21T02:59:53.482Z,16.75
2022-11-21T03:02:20.791Z,17.75
2022-11-21T03:04:48.220Z,18.15
2022-11-21T03:07:15.908Z,19.55
2022-11-21T03:09:43.268Z,23.42
2022-11-21T03:12:10.623Z,18.98
2022-11-21T03:14:38.225Z,22.15
2022-11-21T03:17:05.580Z,22.65
2022-11-21T03:19:32.894Z,20.30
2022-11-21T03:22:00.449Z,10.93
2022-11-21T03:24:28.046Z,18.52
2022-11-21T03:26:55.542Z,18.15
2022-11-21T03:29:23.195Z,19.05
2022-11-21T03:31:50.550Z,18.08
2022-11-21T03:34:17.886Z,16.67
2022-11-21T03:36:45.439Z,18.83
2022-11-21T03:39:12.770Z,18.50
2022-11-21T03:41:40.101Z,1.15
2022-11-21T03:44:09.717Z,18.17
2022-11-21T03:46:39.003Z,17.08
2022-11-21T03:49:07.172Z,2.60
2022-11-21T03:51:35.201Z,16.73
2022-11-21T03:54:03.158Z,18.37
2022-11-21T03:56:30.848Z,17.95
2022-11-21T03:58:58.826Z,17.95
2022-11-21T04:01:26.342Z,17.87
2022-11-21T04:03:53.936Z,16.52
2022-11-21T04:06:22.670Z,16.37
2022-11-21T04:08:50.297Z,15.77
2022-11-21T04:11:18.134Z,16.52
2022-11-21T04:13:45.421Z,2.47
2022-11-21T04:16:12.760Z,15.35
2022-11-21T04:18:40.319Z,14.90
2022-11-21T04:21:08.307Z,11.02
2022-11-21T04:23:35.990Z,17.00
2022-11-21T04:26:03.840Z,0.70
2022-11-21T04:28:31.505Z,18.70
2022-11-21T04:31:06.994Z,19.73
2022-11-21T04:33:40.582Z,18.60
2022-11-21T04:36:08.499Z,20.88
2022-11-21T04:38:36.228Z,20.67
2022-11-21T04:41:04.718Z,0.90
2022-11-21T04:43:32.048Z,18.65
2022-11-21T04:45:59.356Z,16.95
2022-11-21T04:48:26.934Z,17.00
2022-11-21T04:50:54.240Z,13.68
2022-11-21T04:53:21.556Z,17.20
2022-11-21T04:55:49.153Z,3.00
2022-11-21T04:58:16.457Z,16.33
2022-11-21T05:00:43.800Z,17.40
2022-11-21T05:03:11.527Z,16.98
2022-11-21T05:05:38.857Z,1.25
2022-11-21T05:08:06.159Z,18.27
2022-11-21T05:10:53.696Z,0.80
2022-11-21T05:13:20.999Z,16.85
2022-11-21T05:15:51.666Z,17.12
2022-11-21T05:18:20.037Z,17.23
2022-11-21T05:20:47.514Z,17.80
2022-11-21T05:23:15.093Z,0.95
2022-11-21T05:25:42.428Z,17.35
2022-11-21T05:28:09.743Z,17.05
2022-11-21T05:30:37.776Z,18.52
2022-11-21T05:33:05.477Z,8.98
2022-11-21T05:35:32.913Z,20.40
2022-11-21T05:38:00.502Z,8.10
2022-11-21T05:40:27.820Z,22.98
2022-11-21T05:43:13.472Z,23.95
2022-11-21T05:45:41.047Z,12.95
2022-11-21T05:48:08.425Z,21.83
2022-11-21T05:50:36.509Z,21.35
2022-11-21T05:53:04.861Z,22.05
2022-11-21T05:55:34.185Z,22.00
2022-11-21T05:58:01.845Z,6.53
2022-11-21T06:00:29.587Z,21.17
2022-11-21T06:03:15.919Z,25.08
2022-11-21T06:05:43.294Z,22.90
2022-11-21T06:08:10.847Z,22.33
2022-11-21T06:10:38.191Z,22.13
2022-11-21T06:13:22.067Z,20.37
2022-11-21T06:16:01.414Z,16.83
2022-11-21T06:18:32.020Z,16.75
2022-11-21T06:21:11.800Z,16.58
2022-11-21T06:23:39.195Z,19.45
2022-11-21T06:26:08.497Z,15.90
2022-11-21T06:28:38.089Z,17.90
2022-11-21T06:31:16.255Z,16.95
2022-11-21T06:33:44.214Z,17.12
2022-11-21T06:36:16.503Z,15.35
2022-11-21T06:38:45.250Z,15.02
2022-11-21T06:41:15.505Z,15.88
2022-11-21T06:43:43.371Z,16.10
2022-11-21T06:46:11.625Z,1.08
2022-11-21T06:48:39.156Z,16.70
2022-11-21T06:51:08.629Z,17.85
2022-11-21T06:53:36.199Z,16.27
2022-11-21T06:56:03.953Z,14.90
2022-11-21T06:58:31.807Z,16.37
2022-11-21T07:01:07.329Z,17.75
2022-11-21T07:03:35.008Z,15.43
2022-11-21T07:06:05.658Z,16.60
2022-11-21T07:08:35.398Z,16.12
2022-11-21T07:11:24.728Z,14.68
2022-11-21T07:13:53.013Z,13.95
2022-11-21T07:16:20.629Z,15.27
2022-11-21T07:18:48.020Z,16.02
2022-11-21T07:21:15.332Z,15.63
2022-11-21T07:23:43.128Z,17.48
2022-11-21T07:26:10.761Z,17.75
2022-11-21T07:28:38.615Z,18.70
2022-11-21T07:31:12.886Z,16.45
2022-11-21T07:33:43.217Z,17.10
2022-11-21T07:36:12.191Z,5.22
2022-11-21T07:38:41.336Z,15.23
2022-11-21T07:41:09.628Z,1.85
2022-11-21T07:43:37.202Z,14.90
2022-11-21T07:46:04.522Z,14.63
2022-11-21T07:48:31.833Z,16.60
2022-11-21T07:50:59.391Z,19.55
2022-11-21T07:53:26.716Z,30.80
2022-11-21T07:55:54.027Z,26.15
2022-11-21T07:58:21.627Z,16.27
2022-11-21T08:00:48.933Z,15.82
2022-11-21T08:03:18.063Z,14.77
2022-11-21T08:05:45.418Z,14.98
2022-11-21T08:08:13.349Z,15.48
2022-11-21T08:10:43.916Z,15.23
2022-11-21T08:13:12.027Z,15.52
2022-11-21T08:15:39.767Z,15.23
2022-11-21T08:18:11.842Z,14.75
2022-11-21T08:20:39.351Z,13.98
2022-11-21T08:23:07.276Z,15.13
2022-11-21T08:25:39.992Z,14.70
2022-11-21T08:28:08.741Z,14.43
2022-11-21T08:30:36.998Z,14.38
2022-11-21T08:33:05.179Z,12.55
2022-11-21T08:35:33.097Z,13.35
2022-11-21T08:38:01.463Z,14.30
2022-11-21T08:40:30.099Z,14.45
2022-11-21T08:43:08.098Z,14.23
2022-11-21T08:45:37.213Z,14.10
2022-11-21T08:48:09.681Z,14.48
2022-11-21T08:50:37.279Z,13.45
2022-11-21T08:53:05.161Z,12.98
2022-11-21T08:55:34.461Z,13.52
2022-11-21T08:58:02.518Z,13.00
2022-11-21T09:00:30.296Z,14.82
2022-11-21T09:02:57.705Z,14.98
2022-11-21T09:05:25.027Z,13.15
2022-11-21T09:07:58.811Z,14.57
2022-11-21T09:10:26.800Z,13.07
2022-11-21T09:12:54.467Z,12.88
2022-11-21T09:15:40.203Z,13.45
2022-11-21T09:18:08.219Z,13.45
2022-11-21T09:20:40.672Z,13.32
2022-11-21T09:23:10.105Z,13.00
2022-11-21T09:25:37.623Z,12.98
2022-11-21T09:28:06.867Z,13.10
2022-11-21T09:30:34.767Z,12.98
2022-11-21T09:33:05.953Z,12.80
2022-11-21T09:35:33.574Z,12.48
2022-11-21T09:38:00.936Z,13.90
2022-11-21T09:40:31.915Z,13.45
2022-11-21T09:43:06.622Z,12.25
2022-11-21T09:45:59.923Z,13.13
2022-11-21T09:48:35.091Z,12.55
2022-11-21T09:51:12.082Z,13.07
2022-11-21T09:53:53.141Z,12.50
2022-11-21T09:56:23.612Z,12.15
2022-11-21T09:59:07.608Z,12.20
2022-11-21T10:01:35.815Z,12.35
2022-11-21T10:04:04.060Z,12.37
2022-11-21T10:06:47.318Z,13.02
2022-11-21T10:09:34.429Z,12.13
2022-11-21T10:12:35.554Z,13.50
2022-11-21T10:15:45.003Z,12.18
2022-11-21T10:18:33.010Z,12.13
2022-11-21T10:21:30.808Z,12.77
2022-11-21T10:24:08.871Z,10.98
2022-11-21T10:26:48.019Z,11.50
2022-11-21T10:29:22.764Z,11.38
2022-11-21T10:31:51.140Z,11.10
2022-11-21T10:34:21.750Z,12.60
2022-11-21T10:36:52.652Z,12.32
2022-11-21T10:39:23.687Z,11.10
2022-11-21T10:42:24.690Z,12.37
2022-11-21T10:45:11.389Z,10.73
2022-11-21T10:47:38.907Z,11.80
2022-11-21T10:50:09.423Z,11.45
2022-11-21T10:52:44.304Z,12.15
2022-11-21T10:55:13.909Z,12.07
2022-11-21T10:57:45.686Z,11.85
2022-11-21T11:00:13.198Z,11.60
2022-11-21T11:02:42.962Z,10.10
2022-11-21T11:05:16.346Z,11.30
2022-11-21T11:08:00.129Z,10.90
2022-11-21T11:10:28.555Z,11.23
2022-11-21T11:13:44.583Z,11.52
2022-11-21T11:16:17.736Z,11.52
2022-11-21T11:18:58.930Z,10.98
2022-11-21T11:21:31.353Z,10.88
2022-11-21T11:24:14.210Z,9.93
2022-11-21T11:26:48.471Z,10.02
2022-11-21T11:32:01.287Z,11.25
2022-11-21T11:34:39.356Z,11.40
2022-11-21T11:37:17.260Z,10.50
2022-11-21T11:40:23.140Z,9.25
2022-11-21T11:43:31.548Z,12.15
2022-11-21T11:46:57.890Z,13.35
2022-11-21T11:49:59.363Z,13.65
2022-11-21T11:52:34.198Z,14.98
2022-11-21T11:55:07.476Z,14.30
2022-11-21T11:57:36.612Z,15.52
2022-11-21T12:00:13.598Z,13.43
2022-11-21T12:02:57.798Z,16.85
2022-11-21T12:05:26.859Z,15.43
2022-11-21T12:11:53.861Z,9.95
2022-11-21T12:14:54.264Z,10.88
2022-11-21T12:17:32.710Z,10.88
2022-11-21T12:20:04.276Z,12.95
2022-11-21T12:22:32.992Z,16.45
2022-11-21T12:25:00.882Z,13.70
2022-11-21T12:27:33.096Z,15.73
2022-11-21T12:30:31.131Z,18.52
2022-11-21T12:33:08.858Z,19.17
2022-11-21T12:35:47.826Z,20.95
2022-11-21T12:38:15.021Z,17.20
2022-11-21T12:41:31.167Z,15.25
2022-11-21T12:44:14.238Z,16.40
2022-11-21T12:46:57.674Z,14.52
2022-11-21T12:49:55.784Z,12.40
2022-11-21T12:52:52.132Z,11.60
2022-11-21T12:55:39.955Z,12.43
2022-11-21T12:58:33.315Z,11.15
2022-11-21T13:01:07.366Z,10.05
2022-11-21T13:04:13.623Z,10.85
2022-11-21T13:06:43.637Z,11.73
2022-11-21T13:09:16.933Z,11.02
2022-11-21T13:11:59.601Z,11.45
2022-11-21T13:14:31.839Z,11.90
2022-11-21T13:17:01.859Z,11.07
2022-11-21T13:19:44.720Z,11.23
2022-11-21T13:22:50.974Z,10.05
2022-11-21T13:25:39.251Z,11.02
2022-11-21T13:28:18.733Z,9.88
2022-11-21T13:30:52.996Z,10.45
2022-11-21T13:33:45.903Z,10.53
2022-11-21T13:36:35.052Z,10.32
2022-11-21T13:39:03.106Z,9.70
2022-11-21T13:41:55.474Z,10.00
2022-11-21T13:44:36.221Z,9.23
2022-11-21T13:47:39.939Z,9.80
2022-11-21T13:50:25.186Z,15.32
2022-11-21T13:53:20.185Z,15.93
2022-11-21T13:56:00.721Z,13.40
2022-11-21T13:58:34.291Z,10.15
2022-11-21T14:01:09.532Z,9.25
2022-11-21T14:04:21.839Z,11.70
2022-11-21T14:06:49.611Z,11.88
2022-11-21T14:09:20.630Z,12.05
2022-11-21T14:11:55.133Z,13.45
2022-11-21T14:14:33.198Z,16.42
2022-11-21T14:17:14.192Z,10.20
2022-11-21T14:19:42.171Z,12.13
2022-11-21T14:22:16.493Z,16.90
2022-11-21T14:24:44.751Z,24.50
2022-11-21T14:27:21.233Z,14.35
2022-11-21T14:29:48.843Z,22.52
2022-11-21T14:32:16.474Z,14.48
2022-11-21T14:34:43.774Z,14.15
2022-11-21T14:37:13.075Z,11.57
2022-11-21T14:39:44.476Z,10.80
2022-11-21T14:42:15.358Z,10.85
2022-11-21T14:44:43.346Z,13.35
2022-11-21T14:47:24.658Z,14.15
2022-11-21T14:50:00.962Z,14.10
2022-11-21T14:52:32.065Z,12.80
2022-11-21T14:57:49.253Z,11.45
2022-11-21T15:03:20.918Z,11.75
2022-11-21T15:06:02.545Z,12.37
2022-11-21T15:11:39.002Z,11.63
2022-11-21T15:14:37.033Z,11.65
2022-11-21T15:17:09.175Z,11.68
2022-11-21T15:19:36.549Z,10.75
2022-11-21T15:22:05.080Z,11.50
2022-11-21T15:24:43.324Z,11.35
2022-11-21T15:27:25.904Z,13.13
2022-11-21T15:30:02.555Z,21.52
2022-11-21T15:32:33.521Z,13.25
2022-11-21T15:35:31.906Z,12.75
2022-11-21T15:37:59.581Z,12.73
2022-11-21T15:40:27.215Z,13.13
2022-11-21T15:42:54.524Z,12.82
2022-11-21T15:45:25.536Z,12.43
2022-11-21T15:47:55.900Z,13.65
2022-11-21T15:50:24.929Z,13.00
2022-11-21T15:52:53.334Z,12.40
2022-11-21T15:55:29.211Z,12.73
2022-11-21T15:57:57.128Z,13.43
2022-11-21T16:00:24.482Z,12.48
2022-11-21T16:02:52.069Z,14.02
2022-11-21T16:05:19.403Z,16.77
2022-11-21T16:07:48.470Z,20.33
2022-11-21T16:10:22.604Z,18.75
2022-11-21T16:12:53.379Z,16.48
2022-11-21T16:15:21.163Z,15.35
2022-11-21T16:17:48.466Z,17.08
2022-11-21T16:20:15.928Z,15.10
2022-11-21T16:22:47.674Z,15.52
2022-11-21T16:25:16.071Z,16.50
2022-11-21T16:27:43.707Z,16.90
2022-11-21T16:30:12.473Z,19.70
2022-11-21T16:32:39.834Z,21.80
2022-11-21T16:35:08.300Z,20.80
2022-11-21T16:37:35.688Z,22.00
2022-11-21T16:40:03.163Z,22.52
2022-11-21T16:42:31.075Z,21.60
2022-11-21T16:44:59.765Z,24.63
2022-11-21T16:47:27.209Z,20.85
2022-11-21T16:49:54.853Z,21.20
2022-11-21T16:52:22.281Z,21.12
2022-11-21T16:54:50.131Z,21.50
2022-11-21T16:57:17.802Z,34.35
2022-11-21T16:59:45.107Z,29.12
2022-11-21T17:02:13.001Z,37.33
2022-11-21T17:04:40.906Z,44.10
2022-11-21T17:07:08.512Z,42.58
2022-11-21T17:09:36.027Z,42.60
2022-11-21T17:12:04.210Z,31.20
2022-11-21T17:14:32.023Z,30.67
2022-11-21T17:16:59.642Z,30.75
2022-11-21T17:19:28.228Z,34.97
2022-11-21T17:21:56.815Z,37.72
2022-11-21T17:24:24.197Z,33.65
2022-11-21T17:26:52.327Z,26.23
2022-11-21T17:29:20.193Z,24.23
2022-11-21T17:31:50.285Z,24.42
2022-11-21T17:34:19.362Z,24.50
2022-11-21T17:36:47.243Z,24.33
2022-11-21T17:39:14.804Z,23.10
2022-11-21T17:41:42.846Z,25.80
2022-11-21T17:44:14.239Z,26.35
2022-11-21T17:46:42.031Z,27.10
2022-11-21T17:49:09.980Z,26.05
2022-11-21T17:51:38.203Z,25.37
2022-11-21T17:54:09.004Z,27.37
2022-11-21T17:56:42.477Z,33.55
2022-11-21T17:59:13.637Z,48.42
2022-11-21T18:01:41.536Z,50.33
2022-11-21T18:04:14.914Z,45.38
2022-11-21T18:06:43.275Z,46.67
2022-11-21T18:09:11.912Z,46.42
2022-11-21T18:11:40.704Z,45.42
2022-11-21T18:14:10.935Z,44.95
2022-11-21T18:16:39.940Z,49.90
2022-11-21T18:19:13.484Z,55.38
2022-11-21T18:21:41.595Z,50.42
2022-11-21T18:24:09.153Z,53.28
2022-11-21T18:26:38.628Z,60.42
2022-11-21T18:31:57.890Z,51.40
2022-11-21T18:34:26.120Z,55.00
2022-11-21T18:36:54.511Z,26.62
2022-11-21T18:39:28.659Z,26.35
2022-11-21T18:41:56.875Z,26.60
2022-11-21T18:44:24.380Z,23.85
2022-11-21T18:46:52.343Z,25.83
2022-11-21T18:49:20.520Z,25.85
2022-11-21T18:51:48.889Z,21.90
2022-11-21T18:54:17.020Z,19.80
2022-11-21T18:56:45.444Z,18.50
2022-11-21T18:59:13.113Z,16.67
2022-11-21T19:01:41.133Z,16.55
2022-11-21T19:04:12.619Z,17.55
2022-11-21T19:06:40.158Z,20.02
2022-11-21T19:09:09.141Z,25.60
2022-11-21T19:11:38.003Z,28.38
2022-11-21T19:14:06.036Z,31.75
2022-11-21T19:16:36.929Z,31.23
2022-11-21T19:19:33.675Z,53.65
2022-11-21T19:22:01.506Z,34.00
2022-11-21T19:24:29.760Z,31.25
2022-11-21T19:26:57.325Z,27.08
2022-11-21T19:29:25.231Z,33.38
2022-11-21T19:31:53.455Z,31.37
2022-11-21T19:34:21.253Z,26.52
2022-11-21T19:36:48.669Z,24.92
2022-11-21T19:39:17.827Z,25.17
2022-11-21T19:41:48.785Z,23.73
2022-11-21T19:44:17.144Z,23.87
2022-11-21T19:46:45.492Z,23.77
2022-11-21T19:49:13.548Z,22.85
2022-11-21T19:51:42.281Z,24.10
2022-11-21T19:54:12.288Z,25.98
2022-11-21T19:56:40.746Z,25.73
2022-11-21T19:59:11.760Z,31.98
2022-11-21T20:01:39.964Z,37.35
2022-11-21T20:04:07.735Z,28.48
2022-11-21T20:06:38.899Z,23.85
2022-11-21T20:09:09.041Z,22.20
2022-11-21T20:11:40.845Z,20.40
2022-11-21T20:14:10.188Z,18.83
2022-11-21T20:16:40.642Z,17.08
2022-11-21T20:19:10.616Z,16.90
2022-11-21T20:21:39.832Z,16.92
2022-11-21T20:24:07.772Z,17.58
2022-11-21T20:26:37.130Z,17.05
2022-11-21T20:29:06.866Z,15.90
2022-11-21T20:31:37.689Z,17.15
2022-11-21T20:34:09.113Z,16.02
2022-11-21T20:36:38.212Z,18.10
2022-11-21T20:39:11.453Z,19.35
2022-11-21T20:41:39.621Z,32.47
2022-11-21T20:47:01.002Z,16.80
2022-11-21T20:49:28.850Z,13.95
2022-11-21T20:54:45.174Z,18.77
2022-11-21T20:57:15.291Z,17.85
2022-11-21T20:59:43.778Z,16.08
2022-11-21T21:02:15.108Z,14.75
2022-11-21T21:04:43.610Z,14.90
2022-11-21T21:07:11.604Z,18.52
2022-11-21T21:09:39.548Z,20.15
2022-11-21T21:12:07.123Z,19.25
2022-11-21T21:14:34.935Z,17.98
2022-11-21T21:17:02.448Z,18.67
2022-11-21T21:19:30.059Z,17.85
2022-11-21T21:21:58.141Z,19.45
2022-11-21T21:24:27.705Z,16.35
2022-11-21T21:26:55.009Z,15.93
2022-11-21T21:29:22.791Z,13.75
2022-11-21T21:31:52.079Z,13.07
2022-11-21T21:34:21.128Z,15.75
2022-11-21T21:36:49.207Z,15.27
2022-11-21T21:39:16.731Z,19.23
2022-11-21T21:41:45.948Z,20.08
2022-11-21T21:44:14.433Z,23.42
2022-11-21T21:46:41.801Z,23.65
2022-11-21T21:49:09.186Z,22.67
2022-11-21T21:51:37.393Z,22.45
2022-11-21T21:54:05.533Z,21.80
2022-11-21T21:56:33.704Z,22.00
2022-11-21T21:59:01.331Z,20.08
2022-11-21T22:01:30.427Z,21.77
2022-11-21T22:04:02.711Z,21.62
2022-11-21T22:06:32.847Z,21.73
2022-11-21T22:09:00.738Z,25.35
2022-11-21T22:11:32.763Z,23.85
2022-11-21T22:14:02.756Z,19.80
2022-11-21T22:16:30.525Z,22.77
2022-11-21T22:18:57.965Z,23.12
2022-11-21T22:21:32.577Z,20.83
2022-11-21T22:24:24.148Z,23.30
2022-11-21T22:26:49.524Z,22.65
2022-11-21T22:29:16.958Z,23.15
2022-11-21T22:31:44.305Z,22.80
2022-11-21T22:34:13.454Z,23.75
2022-11-21T22:36:41.553Z,24.35
2022-11-21T22:39:09.143Z,22.83
2022-11-21T22:41:36.765Z,22.95
2022-11-21T22:44:04.164Z,22.00
2022-11-21T22:46:31.646Z,22.37
2022-11-21T22:48:59.651Z,24.95
2022-11-21T22:51:31.316Z,23.58
2022-11-21T22:53:58.888Z,24.65
2022-11-21T22:56:27.729Z,22.73
2022-11-21T22:58:56.043Z,25.00
2022-11-21T23:01:25.451Z,24.02
2022-11-21T23:03:53.358Z,24.17
2022-11-21T23:06:23.689Z,22.67
2022-11-21T23:08:55.943Z,24.10
2022-11-21T23:11:26.291Z,24.55
2022-11-21T23:13:55.529Z,23.48
2022-11-21T23:16:23.175Z,22.42
2022-11-21T23:18:54.047Z,22.02
2022-11-21T23:21:21.869Z,23.77
2022-11-21T23:23:49.493Z,23.10
2022-11-21T23:26:17.029Z,23.25
2022-11-21T23:28:44.663Z,21.90
2022-11-21T23:31:12.387Z,21.83
2022-11-21T23:33:39.734Z,21.92
2022-11-21T23:36:07.437Z,21.87
2022-11-21T23:38:34.809Z,20.65
2022-11-21T23:41:02.136Z,21.05
2022-11-21T23:43:29.694Z,21.30
2022-11-21T23:45:57.008Z,19.90
2022-11-21T23:48:24.388Z,19.00
2022-11-21T23:50:52.341Z,16.77
2022-11-21T23:53:20.294Z,18.50
2022-11-21T23:55:48.370Z,17.85
2022-11-21T23:58:16.294Z,17.05
